sensor_id;sensor_type;location;lat;lon;timestamp;P1;durP1;ratioP1;P2;durP2;ratioP2
69358;SDS011;56520;49.066;8.660;2023-09-30T00:01:42;2.65;;;0.90;;
69358;SDS011;56520;49.066;8.660;2023-09-30T00:04:09;3.55;;;1.15;;
69358;SDS011;56520;49.066;8.660;2023-09-30T00:06:34;2.40;;;0.90;;
69358;SDS011;56520;49.066;8.660;2023-09-30T00:09:00;2.97;;;1.05;;
69358;SDS011;56520;49.066;8.660;2023-09-30T00:11:25;1.98;;;0.68;;
69358;SDS011;56520;49.066;8.660;2023-09-30T00:13:51;2.47;;;0.88;;
69358;SDS011;56520;49.066;8.660;2023-09-30T00:16:21;2.20;;;0.80;;
69358;SDS011;56520;49.066;8.660;2023-09-30T00:18:47;1.92;;;0.73;;
69358;SDS011;56520;49.066;8.660;2023-09-30T00:21:12;3.45;;;1.00;;
69358;SDS011;56520;49.066;8.660;2023-09-30T00:23:37;3.42;;;1.00;;
69358;SDS011;56520;49.066;8.660;2023-09-30T00:26:03;3.58;;;0.90;;
69358;SDS011;56520;49.066;8.660;2023-09-30T00:28:28;4.35;;;1.20;;
69358;SDS011;56520;49.066;8.660;2023-09-30T00:30:54;3.47;;;1.00;;
69358;SDS011;56520;49.066;8.660;2023-09-30T00:33:19;3.03;;;1.02;;
69358;SDS011;56520;49.066;8.660;2023-09-30T00:35:45;4.13;;;1.10;;
69358;SDS011;56520;49.066;8.660;2023-09-30T00:38:11;3.70;;;1.20;;
69358;SDS011;56520;49.066;8.660;2023-09-30T00:40:36;3.13;;;1.20;;
69358;SDS011;56520;49.066;8.660;2023-09-30T00:43:02;3.30;;;1.05;;
69358;SDS011;56520;49.066;8.660;2023-09-30T00:45:28;3.15;;;1.00;;
69358;SDS011;56520;49.066;8.660;2023-09-30T00:47:53;3.10;;;1.10;;
69358;SDS011;56520;49.066;8.660;2023-09-30T00:50:19;3.20;;;1.10;;
69358;SDS011;56520;49.066;8.660;2023-09-30T00:52:46;3.20;;;1.15;;
69358;SDS011;56520;49.066;8.660;2023-09-30T00:55:13;4.63;;;1.30;;
69358;SDS011;56520;49.066;8.660;2023-09-30T00:57:40;3.33;;;1.35;;
69358;SDS011;56520;49.066;8.660;2023-09-30T01:00:06;4.53;;;1.50;;
69358;SDS011;56520;49.066;8.660;2023-09-30T01:02:36;4.60;;;1.70;;
69358;SDS011;56520;49.066;8.660;2023-09-30T01:05:04;5.90;;;1.70;;
69358;SDS011;56520;49.066;8.660;2023-09-30T01:07:30;4.65;;;1.50;;
69358;SDS011;56520;49.066;8.660;2023-09-30T01:09:55;3.83;;;1.42;;
69358;SDS011;56520;49.066;8.660;2023-09-30T01:12:21;4.40;;;1.40;;
69358;SDS011;56520;49.066;8.660;2023-09-30T01:14:46;4.00;;;1.20;;
69358;SDS011;56520;49.066;8.660;2023-09-30T01:17:14;3.83;;;1.40;;
69358;SDS011;56520;49.066;8.660;2023-09-30T01:19:40;5.03;;;1.30;;
69358;SDS011;56520;49.066;8.660;2023-09-30T01:22:07;4.88;;;1.52;;
69358;SDS011;56520;49.066;8.660;2023-09-30T01:24:41;3.22;;;1.10;;
69358;SDS011;56520;49.066;8.660;2023-09-30T01:27:07;3.58;;;1.15;;
69358;SDS011;56520;49.066;8.660;2023-09-30T01:29:33;2.88;;;0.93;;
69358;SDS011;56520;49.066;8.660;2023-09-30T01:32:00;3.88;;;1.73;;
69358;SDS011;56520;49.066;8.660;2023-09-30T01:34:26;2.90;;;0.98;;
69358;SDS011;56520;49.066;8.660;2023-09-30T01:36:51;3.83;;;1.20;;
69358;SDS011;56520;49.066;8.660;2023-09-30T01:39:17;3.03;;;0.98;;
69358;SDS011;56520;49.066;8.660;2023-09-30T01:41:42;3.35;;;1.00;;
69358;SDS011;56520;49.066;8.660;2023-09-30T01:44:08;3.30;;;1.17;;
69358;SDS011;56520;49.066;8.660;2023-09-30T01:46:34;2.30;;;1.00;;
69358;SDS011;56520;49.066;8.660;2023-09-30T01:48:59;3.03;;;1.17;;
69358;SDS011;56520;49.066;8.660;2023-09-30T01:51:25;3.83;;;1.38;;
69358;SDS011;56520;49.066;8.660;2023-09-30T01:53:50;3.65;;;1.27;;
69358;SDS011;56520;49.066;8.660;2023-09-30T01:56:16;4.18;;;1.35;;
69358;SDS011;56520;49.066;8.660;2023-09-30T01:58:41;3.13;;;1.20;;
69358;SDS011;56520;49.066;8.660;2023-09-30T02:01:07;3.75;;;1.08;;
69358;SDS011;56520;49.066;8.660;2023-09-30T02:03:33;2.10;;;0.80;;
69358;SDS011;56520;49.066;8.660;2023-09-30T02:05:58;2.00;;;0.95;;
69358;SDS011;56520;49.066;8.660;2023-09-30T02:08:24;4.05;;;1.40;;
69358;SDS011;56520;49.066;8.660;2023-09-30T02:10:49;3.17;;;1.27;;
69358;SDS011;56520;49.066;8.660;2023-09-30T02:13:18;5.85;;;1.50;;
69358;SDS011;56520;49.066;8.660;2023-09-30T02:15:45;4.15;;;1.38;;
69358;SDS011;56520;49.066;8.660;2023-09-30T02:18:10;4.30;;;1.10;;
69358;SDS011;56520;49.066;8.660;2023-09-30T02:20:36;4.57;;;1.60;;
69358;SDS011;56520;49.066;8.660;2023-09-30T02:23:08;3.67;;;1.13;;
69358;SDS011;56520;49.066;8.660;2023-09-30T02:25:38;3.47;;;1.33;;
69358;SDS011;56520;49.066;8.660;2023-09-30T02:28:04;3.10;;;1.30;;
69358;SDS011;56520;49.066;8.660;2023-09-30T02:30:31;2.88;;;1.10;;
69358;SDS011;56520;49.066;8.660;2023-09-30T02:32:56;5.20;;;1.42;;
69358;SDS011;56520;49.066;8.660;2023-09-30T02:35:22;4.68;;;1.50;;
69358;SDS011;56520;49.066;8.660;2023-09-30T02:37:47;5.28;;;1.48;;
69358;SDS011;56520;49.066;8.660;2023-09-30T02:40:14;4.15;;;1.40;;
69358;SDS011;56520;49.066;8.660;2023-09-30T02:42:42;7.13;;;1.50;;
69358;SDS011;56520;49.066;8.660;2023-09-30T02:45:08;3.95;;;1.30;;
69358;SDS011;56520;49.066;8.660;2023-09-30T02:47:34;3.03;;;1.23;;
69358;SDS011;56520;49.066;8.660;2023-09-30T02:50:00;4.38;;;1.23;;
69358;SDS011;56520;49.066;8.660;2023-09-30T02:52:26;2.00;;;0.90;;
69358;SDS011;56520;49.066;8.660;2023-09-30T02:54:52;3.47;;;1.17;;
69358;SDS011;56520;49.066;8.660;2023-09-30T02:57:20;3.28;;;1.10;;
69358;SDS011;56520;49.066;8.660;2023-09-30T02:59:46;3.80;;;1.20;;
69358;SDS011;56520;49.066;8.660;2023-09-30T03:02:12;3.60;;;1.40;;
69358;SDS011;56520;49.066;8.660;2023-09-30T03:04:38;2.72;;;1.00;;
69358;SDS011;56520;49.066;8.660;2023-09-30T03:07:03;2.13;;;0.93;;
69358;SDS011;56520;49.066;8.660;2023-09-30T03:09:28;3.08;;;1.02;;
69358;SDS011;56520;49.066;8.660;2023-09-30T03:11:54;3.15;;;1.20;;
69358;SDS011;56520;49.066;8.660;2023-09-30T03:14:24;2.95;;;1.00;;
69358;SDS011;56520;49.066;8.660;2023-09-30T03:16:50;2.33;;;0.95;;
69358;SDS011;56520;49.066;8.660;2023-09-30T03:19:15;1.63;;;0.80;;
69358;SDS011;56520;49.066;8.660;2023-09-30T03:21:42;3.17;;;0.85;;
69358;SDS011;56520;49.066;8.660;2023-09-30T03:24:07;2.00;;;0.82;;
69358;SDS011;56520;49.066;8.660;2023-09-30T03:26:36;2.88;;;1.00;;
69358;SDS011;56520;49.066;8.660;2023-09-30T03:29:01;3.92;;;1.20;;
69358;SDS011;56520;49.066;8.660;2023-09-30T03:31:28;5.00;;;1.27;;
69358;SDS011;56520;49.066;8.660;2023-09-30T03:33:54;3.38;;;1.27;;
69358;SDS011;56520;49.066;8.660;2023-09-30T03:36:22;3.45;;;1.15;;
69358;SDS011;56520;49.066;8.660;2023-09-30T03:41:19;2.05;;;0.70;;
69358;SDS011;56520;49.066;8.660;2023-09-30T03:43:44;3.22;;;1.02;;
69358;SDS011;56520;49.066;8.660;2023-09-30T03:46:10;4.25;;;0.93;;
69358;SDS011;56520;49.066;8.660;2023-09-30T03:48:37;3.50;;;1.15;;
69358;SDS011;56520;49.066;8.660;2023-09-30T03:51:25;3.00;;;1.20;;
69358;SDS011;56520;49.066;8.660;2023-09-30T03:53:50;2.63;;;1.05;;
69358;SDS011;56520;49.066;8.660;2023-09-30T03:56:15;3.88;;;1.42;;
69358;SDS011;56520;49.066;8.660;2023-09-30T03:58:43;2.65;;;0.80;;
69358;SDS011;56520;49.066;8.660;2023-09-30T04:01:09;3.08;;;0.82;;
69358;SDS011;56520;49.066;8.660;2023-09-30T04:03:36;3.13;;;1.13;;
69358;SDS011;56520;49.066;8.660;2023-09-30T04:06:04;3.03;;;1.17;;
69358;SDS011;56520;49.066;8.660;2023-09-30T04:08:33;2.45;;;1.00;;
69358;SDS011;56520;49.066;8.660;2023-09-30T04:10:59;2.88;;;1.17;;
69358;SDS011;56520;49.066;8.660;2023-09-30T04:13:25;3.05;;;0.95;;
69358;SDS011;56520;49.066;8.660;2023-09-30T04:15:51;2.38;;;1.02;;
69358;SDS011;56520;49.066;8.660;2023-09-30T04:18:16;2.75;;;1.02;;
69358;SDS011;56520;49.066;8.660;2023-09-30T04:20:45;2.78;;;0.90;;
69358;SDS011;56520;49.066;8.660;2023-09-30T04:23:12;3.58;;;1.25;;
69358;SDS011;56520;49.066;8.660;2023-09-30T04:25:38;2.00;;;0.75;;
69358;SDS011;56520;49.066;8.660;2023-09-30T04:28:05;3.17;;;0.90;;
69358;SDS011;56520;49.066;8.660;2023-09-30T04:30:30;2.60;;;1.10;;
69358;SDS011;56520;49.066;8.660;2023-09-30T04:32:57;3.67;;;1.20;;
69358;SDS011;56520;49.066;8.660;2023-09-30T04:35:26;3.03;;;0.93;;
69358;SDS011;56520;49.066;8.660;2023-09-30T04:37:51;4.55;;;1.13;;
69358;SDS011;56520;49.066;8.660;2023-09-30T04:40:17;2.53;;;0.93;;
69358;SDS011;56520;49.066;8.660;2023-09-30T04:42:46;3.15;;;1.20;;
69358;SDS011;56520;49.066;8.660;2023-09-30T04:45:12;3.45;;;1.13;;
69358;SDS011;56520;49.066;8.660;2023-09-30T04:47:41;3.90;;;1.40;;
69358;SDS011;56520;49.066;8.660;2023-09-30T04:50:09;3.20;;;1.15;;
69358;SDS011;56520;49.066;8.660;2023-09-30T04:52:36;5.07;;;1.52;;
69358;SDS011;56520;49.066;8.660;2023-09-30T04:55:02;4.18;;;1.50;;
69358;SDS011;56520;49.066;8.660;2023-09-30T04:57:32;4.50;;;1.80;;
69358;SDS011;56520;49.066;8.660;2023-09-30T04:59:57;4.40;;;1.23;;
69358;SDS011;56520;49.066;8.660;2023-09-30T05:02:23;4.78;;;1.52;;
69358;SDS011;56520;49.066;8.660;2023-09-30T05:04:49;2.85;;;1.10;;
69358;SDS011;56520;49.066;8.660;2023-09-30T05:07:15;3.72;;;1.30;;
69358;SDS011;56520;49.066;8.660;2023-09-30T05:09:40;3.13;;;0.90;;
69358;SDS011;56520;49.066;8.660;2023-09-30T05:12:07;3.28;;;1.20;;
69358;SDS011;56520;49.066;8.660;2023-09-30T05:14:33;3.00;;;0.98;;
69358;SDS011;56520;49.066;8.660;2023-09-30T05:16:58;2.50;;;1.10;;
69358;SDS011;56520;49.066;8.660;2023-09-30T05:19:24;2.15;;;0.98;;
69358;SDS011;56520;49.066;8.660;2023-09-30T05:21:49;2.58;;;0.98;;
69358;SDS011;56520;49.066;8.660;2023-09-30T05:24:15;4.38;;;1.40;;
69358;SDS011;56520;49.066;8.660;2023-09-30T05:26:44;3.58;;;1.23;;
69358;SDS011;56520;49.066;8.660;2023-09-30T05:29:10;4.03;;;1.17;;
69358;SDS011;56520;49.066;8.660;2023-09-30T05:31:35;3.38;;;1.50;;
69358;SDS011;56520;49.066;8.660;2023-09-30T05:34:01;3.45;;;1.38;;
69358;SDS011;56520;49.066;8.660;2023-09-30T05:36:27;3.60;;;1.30;;
69358;SDS011;56520;49.066;8.660;2023-09-30T05:38:52;3.25;;;1.38;;
69358;SDS011;56520;49.066;8.660;2023-09-30T05:41:20;4.35;;;1.45;;
69358;SDS011;56520;49.066;8.660;2023-09-30T05:43:45;4.20;;;1.50;;
69358;SDS011;56520;49.066;8.660;2023-09-30T05:46:12;4.65;;;1.80;;
69358;SDS011;56520;49.066;8.660;2023-09-30T05:48:38;3.45;;;1.25;;
69358;SDS011;56520;49.066;8.660;2023-09-30T05:51:04;5.05;;;1.52;;
69358;SDS011;56520;49.066;8.660;2023-09-30T05:53:31;4.40;;;1.60;;
69358;SDS011;56520;49.066;8.660;2023-09-30T05:55:57;7.68;;;1.73;;
69358;SDS011;56520;49.066;8.660;2023-09-30T05:58:24;5.00;;;1.40;;
69358;SDS011;56520;49.066;8.660;2023-09-30T06:00:51;4.07;;;1.50;;
69358;SDS011;56520;49.066;8.660;2023-09-30T06:03:17;3.13;;;1.25;;
69358;SDS011;56520;49.066;8.660;2023-09-30T06:05:42;3.47;;;1.23;;
69358;SDS011;56520;49.066;8.660;2023-09-30T06:08:11;3.90;;;1.10;;
69358;SDS011;56520;49.066;8.660;2023-09-30T06:10:39;4.38;;;1.40;;
69358;SDS011;56520;49.066;8.660;2023-09-30T06:13:08;4.63;;;1.40;;
69358;SDS011;56520;49.066;8.660;2023-09-30T06:15:36;2.55;;;0.90;;
69358;SDS011;56520;49.066;8.660;2023-09-30T06:18:05;3.25;;;1.33;;
69358;SDS011;56520;49.066;8.660;2023-09-30T06:20:31;2.60;;;1.00;;
69358;SDS011;56520;49.066;8.660;2023-09-30T06:22:58;3.47;;;1.30;;
69358;SDS011;56520;49.066;8.660;2023-09-30T06:25:25;5.10;;;1.60;;
69358;SDS011;56520;49.066;8.660;2023-09-30T06:27:52;4.97;;;1.30;;
69358;SDS011;56520;49.066;8.660;2023-09-30T06:30:19;4.43;;;1.38;;
69358;SDS011;56520;49.066;8.660;2023-09-30T06:32:46;2.75;;;1.02;;
69358;SDS011;56520;49.066;8.660;2023-09-30T06:35:12;3.50;;;1.25;;
69358;SDS011;56520;49.066;8.660;2023-09-30T06:37:38;4.75;;;1.63;;
69358;SDS011;56520;49.066;8.660;2023-09-30T06:40:07;6.03;;;1.50;;
69358;SDS011;56520;49.066;8.660;2023-09-30T06:42:36;4.22;;;1.60;;
69358;SDS011;56520;49.066;8.660;2023-09-30T06:45:02;6.93;;;1.58;;
69358;SDS011;56520;49.066;8.660;2023-09-30T06:47:31;5.15;;;1.83;;
69358;SDS011;56520;49.066;8.660;2023-09-30T06:49:58;4.68;;;1.48;;
69358;SDS011;56520;49.066;8.660;2023-09-30T06:52:38;4.20;;;1.50;;
69358;SDS011;56520;49.066;8.660;2023-09-30T06:55:06;5.70;;;1.63;;
69358;SDS011;56520;49.066;8.660;2023-09-30T06:57:33;5.25;;;1.60;;
69358;SDS011;56520;49.066;8.660;2023-09-30T06:59:59;5.85;;;1.70;;
69358;SDS011;56520;49.066;8.660;2023-09-30T07:02:25;5.25;;;1.77;;
69358;SDS011;56520;49.066;8.660;2023-09-30T07:04:51;3.63;;;1.27;;
69358;SDS011;56520;49.066;8.660;2023-09-30T07:07:17;3.80;;;1.35;;
69358;SDS011;56520;49.066;8.660;2023-09-30T07:09:43;4.63;;;1.80;;
69358;SDS011;56520;49.066;8.660;2023-09-30T07:12:09;3.90;;;1.40;;
69358;SDS011;56520;49.066;8.660;2023-09-30T07:14:35;5.95;;;1.35;;
69358;SDS011;56520;49.066;8.660;2023-09-30T07:17:00;4.03;;;1.52;;
69358;SDS011;56520;49.066;8.660;2023-09-30T07:19:25;3.75;;;1.30;;
69358;SDS011;56520;49.066;8.660;2023-09-30T07:21:54;3.97;;;1.50;;
69358;SDS011;56520;49.066;8.660;2023-09-30T07:24:19;7.22;;;1.77;;
69358;SDS011;56520;49.066;8.660;2023-09-30T07:26:44;4.82;;;1.40;;
69358;SDS011;56520;49.066;8.660;2023-09-30T07:29:10;4.88;;;1.70;;
69358;SDS011;56520;49.066;8.660;2023-09-30T07:31:35;5.65;;;1.80;;
69358;SDS011;56520;49.066;8.660;2023-09-30T07:34:01;3.63;;;1.52;;
69358;SDS011;56520;49.066;8.660;2023-09-30T07:36:27;7.97;;;2.20;;
69358;SDS011;56520;49.066;8.660;2023-09-30T07:38:52;5.45;;;1.50;;
69358;SDS011;56520;49.066;8.660;2023-09-30T07:41:19;5.72;;;1.60;;
69358;SDS011;56520;49.066;8.660;2023-09-30T07:43:44;4.03;;;1.60;;
69358;SDS011;56520;49.066;8.660;2023-09-30T07:46:09;3.97;;;1.40;;
69358;SDS011;56520;49.066;8.660;2023-09-30T07:48:35;3.65;;;1.50;;
69358;SDS011;56520;49.066;8.660;2023-09-30T07:51:00;4.03;;;1.40;;
69358;SDS011;56520;49.066;8.660;2023-09-30T07:53:27;4.97;;;1.63;;
69358;SDS011;56520;49.066;8.660;2023-09-30T07:55:52;4.25;;;1.50;;
69358;SDS011;56520;49.066;8.660;2023-09-30T07:58:19;5.68;;;2.10;;
69358;SDS011;56520;49.066;8.660;2023-09-30T08:00:45;5.35;;;1.90;;
69358;SDS011;56520;49.066;8.660;2023-09-30T08:03:10;4.88;;;1.73;;
69358;SDS011;56520;49.066;8.660;2023-09-30T08:05:36;5.65;;;1.65;;
69358;SDS011;56520;49.066;8.660;2023-09-30T08:08:02;6.20;;;1.77;;
69358;SDS011;56520;49.066;8.660;2023-09-30T08:10:28;6.60;;;2.38;;
69358;SDS011;56520;49.066;8.660;2023-09-30T08:12:54;6.07;;;2.25;;
69358;SDS011;56520;49.066;8.660;2023-09-30T08:15:22;4.97;;;1.60;;
69358;SDS011;56520;49.066;8.660;2023-09-30T08:17:48;6.25;;;2.45;;
69358;SDS011;56520;49.066;8.660;2023-09-30T08:20:13;16.73;;;2.25;;
69358;SDS011;56520;49.066;8.660;2023-09-30T08:22:43;7.05;;;2.55;;
69358;SDS011;56520;49.066;8.660;2023-09-30T08:25:09;5.53;;;1.90;;
69358;SDS011;56520;49.066;8.660;2023-09-30T08:27:36;5.45;;;1.55;;
69358;SDS011;56520;49.066;8.660;2023-09-30T08:30:02;6.57;;;1.90;;
69358;SDS011;56520;49.066;8.660;2023-09-30T08:32:31;6.18;;;2.10;;
69358;SDS011;56520;49.066;8.660;2023-09-30T08:35:01;8.07;;;2.50;;
69358;SDS011;56520;49.066;8.660;2023-09-30T08:37:28;6.68;;;1.90;;
69358;SDS011;56520;49.066;8.660;2023-09-30T08:39:56;5.75;;;2.10;;
69358;SDS011;56520;49.066;8.660;2023-09-30T08:42:22;6.43;;;1.90;;
69358;SDS011;56520;49.066;8.660;2023-09-30T08:44:49;5.88;;;1.80;;
69358;SDS011;56520;49.066;8.660;2023-09-30T08:47:19;6.85;;;1.73;;
69358;SDS011;56520;49.066;8.660;2023-09-30T08:49:45;5.28;;;1.55;;
69358;SDS011;56520;49.066;8.660;2023-09-30T08:52:20;8.02;;;1.75;;
69358;SDS011;56520;49.066;8.660;2023-09-30T08:54:46;6.63;;;1.90;;
69358;SDS011;56520;49.066;8.660;2023-09-30T08:57:12;5.40;;;1.90;;
69358;SDS011;56520;49.066;8.660;2023-09-30T08:59:38;8.23;;;2.28;;
69358;SDS011;56520;49.066;8.660;2023-09-30T09:02:09;6.07;;;1.67;;
69358;SDS011;56520;49.066;8.660;2023-09-30T09:04:37;5.28;;;1.60;;
69358;SDS011;56520;49.066;8.660;2023-09-30T09:07:03;5.38;;;1.90;;
69358;SDS011;56520;49.066;8.660;2023-09-30T09:09:28;5.75;;;1.63;;
69358;SDS011;56520;49.066;8.660;2023-09-30T09:11:54;7.65;;;1.88;;
69358;SDS011;56520;49.066;8.660;2023-09-30T09:14:36;6.10;;;1.80;;
69358;SDS011;56520;49.066;8.660;2023-09-30T09:17:02;4.97;;;1.67;;
69358;SDS011;56520;49.066;8.660;2023-09-30T09:19:29;4.63;;;1.50;;
69358;SDS011;56520;49.066;8.660;2023-09-30T09:24:29;6.00;;;1.77;;
69358;SDS011;56520;49.066;8.660;2023-09-30T09:27:07;3.78;;;1.23;;
69358;SDS011;56520;49.066;8.660;2023-09-30T09:29:34;3.80;;;1.25;;
69358;SDS011;56520;49.066;8.660;2023-09-30T09:32:06;5.38;;;1.80;;
69358;SDS011;56520;49.066;8.660;2023-09-30T09:34:39;7.18;;;1.75;;
69358;SDS011;56520;49.066;8.660;2023-09-30T09:37:18;4.55;;;1.58;;
69358;SDS011;56520;49.066;8.660;2023-09-30T09:42:24;6.20;;;1.75;;
69358;SDS011;56520;49.066;8.660;2023-09-30T09:44:54;6.60;;;1.67;;
69358;SDS011;56520;49.066;8.660;2023-09-30T09:47:22;6.55;;;1.77;;
69358;SDS011;56520;49.066;8.660;2023-09-30T09:49:48;5.00;;;1.58;;
69358;SDS011;56520;49.066;8.660;2023-09-30T09:52:15;6.55;;;1.63;;
69358;SDS011;56520;49.066;8.660;2023-09-30T09:54:43;5.40;;;1.67;;
69358;SDS011;56520;49.066;8.660;2023-09-30T09:57:09;5.82;;;1.50;;
69358;SDS011;56520;49.066;8.660;2023-09-30T09:59:36;4.57;;;1.50;;
69358;SDS011;56520;49.066;8.660;2023-09-30T10:02:04;5.10;;;1.70;;
69358;SDS011;56520;49.066;8.660;2023-09-30T10:04:40;4.75;;;1.50;;
69358;SDS011;56520;49.066;8.660;2023-09-30T10:07:19;4.65;;;1.40;;
69358;SDS011;56520;49.066;8.660;2023-09-30T10:09:47;5.53;;;1.75;;
69358;SDS011;56520;49.066;8.660;2023-09-30T10:12:16;5.95;;;1.80;;
69358;SDS011;56520;49.066;8.660;2023-09-30T10:14:43;5.95;;;1.58;;
69358;SDS011;56520;49.066;8.660;2023-09-30T10:17:09;5.90;;;1.70;;
69358;SDS011;56520;49.066;8.660;2023-09-30T10:19:35;8.18;;;1.88;;
69358;SDS011;56520;49.066;8.660;2023-09-30T10:24:44;4.93;;;1.50;;
69358;SDS011;56520;49.066;8.660;2023-09-30T10:29:54;5.43;;;1.55;;
69358;SDS011;56520;49.066;8.660;2023-09-30T10:32:19;4.15;;;1.40;;
69358;SDS011;56520;49.066;8.660;2023-09-30T10:34:48;4.13;;;1.52;;
69358;SDS011;56520;49.066;8.660;2023-09-30T10:37:19;7.65;;;2.00;;
69358;SDS011;56520;49.066;8.660;2023-09-30T10:40:07;5.60;;;1.60;;
69358;SDS011;56520;49.066;8.660;2023-09-30T10:42:50;4.53;;;1.58;;
69358;SDS011;56520;49.066;8.660;2023-09-30T10:50:52;5.72;;;1.58;;
69358;SDS011;56520;49.066;8.660;2023-09-30T10:53:22;5.10;;;1.63;;
69358;SDS011;56520;49.066;8.660;2023-09-30T10:55:54;4.38;;;1.52;;
69358;SDS011;56520;49.066;8.660;2023-09-30T10:58:21;5.32;;;1.85;;
69358;SDS011;56520;49.066;8.660;2023-09-30T11:00:56;4.50;;;1.52;;
69358;SDS011;56520;49.066;8.660;2023-09-30T11:03:21;5.82;;;1.70;;
69358;SDS011;56520;49.066;8.660;2023-09-30T11:05:47;5.70;;;1.73;;
69358;SDS011;56520;49.066;8.660;2023-09-30T11:08:15;5.60;;;1.80;;
69358;SDS011;56520;49.066;8.660;2023-09-30T11:10:48;5.88;;;1.83;;
69358;SDS011;56520;49.066;8.660;2023-09-30T11:13:18;8.27;;;1.95;;
69358;SDS011;56520;49.066;8.660;2023-09-30T11:15:44;7.15;;;1.52;;
69358;SDS011;56520;49.066;8.660;2023-09-30T11:20:39;5.20;;;1.90;;
69358;SDS011;56520;49.066;8.660;2023-09-30T11:23:06;6.03;;;1.80;;
69358;SDS011;56520;49.066;8.660;2023-09-30T11:25:35;5.65;;;1.75;;
69358;SDS011;56520;49.066;8.660;2023-09-30T11:28:15;6.15;;;1.83;;
69358;SDS011;56520;49.066;8.660;2023-09-30T11:33:23;5.75;;;1.65;;
69358;SDS011;56520;49.066;8.660;2023-09-30T11:36:00;6.15;;;1.80;;
69358;SDS011;56520;49.066;8.660;2023-09-30T11:38:30;11.20;;;2.30;;
69358;SDS011;56520;49.066;8.660;2023-09-30T11:43:27;9.00;;;1.95;;
69358;SDS011;56520;49.066;8.660;2023-09-30T11:46:03;7.82;;;2.00;;
69358;SDS011;56520;49.066;8.660;2023-09-30T11:48:33;8.77;;;1.83;;
69358;SDS011;56520;49.066;8.660;2023-09-30T11:51:00;8.35;;;2.10;;
69358;SDS011;56520;49.066;8.660;2023-09-30T11:53:28;24.10;;;3.65;;
69358;SDS011;56520;49.066;8.660;2023-09-30T11:55:56;13.63;;;2.42;;
69358;SDS011;56520;49.066;8.660;2023-09-30T11:58:30;17.00;;;3.03;;
69358;SDS011;56520;49.066;8.660;2023-09-30T12:00:58;8.35;;;2.05;;
69358;SDS011;56520;49.066;8.660;2023-09-30T12:03:26;6.93;;;2.00;;
69358;SDS011;56520;49.066;8.660;2023-09-30T12:05:53;8.45;;;1.88;;
69358;SDS011;56520;49.066;8.660;2023-09-30T12:08:20;6.93;;;2.10;;
69358;SDS011;56520;49.066;8.660;2023-09-30T12:10:49;7.22;;;1.98;;
69358;SDS011;56520;49.066;8.660;2023-09-30T12:13:14;10.13;;;2.35;;
69358;SDS011;56520;49.066;8.660;2023-09-30T12:15:40;13.90;;;2.35;;
69358;SDS011;56520;49.066;8.660;2023-09-30T12:18:07;8.98;;;2.22;;
69358;SDS011;56520;49.066;8.660;2023-09-30T12:20:32;7.32;;;2.20;;
69358;SDS011;56520;49.066;8.660;2023-09-30T12:22:58;11.80;;;2.50;;
69358;SDS011;56520;49.066;8.660;2023-09-30T12:25:29;8.10;;;2.60;;
69358;SDS011;56520;49.066;8.660;2023-09-30T12:27:54;7.57;;;2.38;;
69358;SDS011;56520;49.066;8.660;2023-09-30T12:30:21;6.38;;;1.95;;
69358;SDS011;56520;49.066;8.660;2023-09-30T12:32:46;6.10;;;1.70;;
69358;SDS011;56520;49.066;8.660;2023-09-30T12:35:12;8.32;;;1.95;;
69358;SDS011;56520;49.066;8.660;2023-09-30T12:37:37;8.48;;;2.20;;
69358;SDS011;56520;49.066;8.660;2023-09-30T12:40:04;6.93;;;2.28;;
69358;SDS011;56520;49.066;8.660;2023-09-30T12:42:32;6.03;;;1.90;;
69358;SDS011;56520;49.066;8.660;2023-09-30T12:45:00;6.78;;;1.75;;
69358;SDS011;56520;49.066;8.660;2023-09-30T12:47:25;11.25;;;3.17;;
69358;SDS011;56520;49.066;8.660;2023-09-30T12:49:51;8.38;;;2.25;;
69358;SDS011;56520;49.066;8.660;2023-09-30T12:52:17;10.23;;;2.28;;
69358;SDS011;56520;49.066;8.660;2023-09-30T12:54:42;7.50;;;2.00;;
69358;SDS011;56520;49.066;8.660;2023-09-30T12:57:08;10.05;;;2.88;;
69358;SDS011;56520;49.066;8.660;2023-09-30T12:59:33;16.13;;;4.05;;
69358;SDS011;56520;49.066;8.660;2023-09-30T13:01:59;7.90;;;2.55;;
69358;SDS011;56520;49.066;8.660;2023-09-30T13:04:24;9.75;;;3.08;;
69358;SDS011;56520;49.066;8.660;2023-09-30T13:06:51;8.02;;;2.63;;
69358;SDS011;56520;49.066;8.660;2023-09-30T13:09:17;10.90;;;2.72;;
69358;SDS011;56520;49.066;8.660;2023-09-30T13:11:45;8.70;;;2.95;;
69358;SDS011;56520;49.066;8.660;2023-09-30T13:14:10;6.68;;;2.13;;
69358;SDS011;56520;49.066;8.660;2023-09-30T13:16:36;6.30;;;1.67;;
69358;SDS011;56520;49.066;8.660;2023-09-30T13:19:02;5.25;;;1.60;;
69358;SDS011;56520;49.066;8.660;2023-09-30T13:21:28;6.90;;;2.00;;
69358;SDS011;56520;49.066;8.660;2023-09-30T13:23:53;6.13;;;1.80;;
69358;SDS011;56520;49.066;8.660;2023-09-30T13:26:19;6.40;;;2.00;;
69358;SDS011;56520;49.066;8.660;2023-09-30T13:28:44;5.75;;;1.60;;
69358;SDS011;56520;49.066;8.660;2023-09-30T13:31:09;7.47;;;2.25;;
69358;SDS011;56520;49.066;8.660;2023-09-30T13:33:35;9.45;;;1.63;;
69358;SDS011;56520;49.066;8.660;2023-09-30T13:36:00;7.45;;;2.40;;
69358;SDS011;56520;49.066;8.660;2023-09-30T13:38:27;6.15;;;2.03;;
69358;SDS011;56520;49.066;8.660;2023-09-30T13:40:53;7.97;;;1.88;;
69358;SDS011;56520;49.066;8.660;2023-09-30T13:43:18;7.20;;;1.85;;
69358;SDS011;56520;49.066;8.660;2023-09-30T13:45:44;6.15;;;1.90;;
69358;SDS011;56520;49.066;8.660;2023-09-30T13:48:09;5.50;;;1.80;;
69358;SDS011;56520;49.066;8.660;2023-09-30T13:50:36;5.20;;;1.80;;
69358;SDS011;56520;49.066;8.660;2023-09-30T13:53:01;6.85;;;2.00;;
69358;SDS011;56520;49.066;8.660;2023-09-30T13:55:27;5.22;;;1.50;;
69358;SDS011;56520;49.066;8.660;2023-09-30T13:57:53;5.60;;;1.90;;
69358;SDS011;56520;49.066;8.660;2023-09-30T14:00:18;5.55;;;1.75;;
69358;SDS011;56520;49.066;8.660;2023-09-30T14:02:44;9.32;;;2.40;;
69358;SDS011;56520;49.066;8.660;2023-09-30T14:05:09;8.00;;;2.05;;
69358;SDS011;56520;49.066;8.660;2023-09-30T14:07:36;7.88;;;1.75;;
69358;SDS011;56520;49.066;8.660;2023-09-30T14:10:02;6.93;;;1.90;;
69358;SDS011;56520;49.066;8.660;2023-09-30T14:12:29;6.05;;;1.90;;
69358;SDS011;56520;49.066;8.660;2023-09-30T14:14:54;7.03;;;2.10;;
69358;SDS011;56520;49.066;8.660;2023-09-30T14:17:20;6.25;;;2.15;;
69358;SDS011;56520;49.066;8.660;2023-09-30T14:19:45;7.85;;;2.40;;
69358;SDS011;56520;49.066;8.660;2023-09-30T14:22:11;8.40;;;2.45;;
69358;SDS011;56520;49.066;8.660;2023-09-30T14:24:37;7.53;;;2.17;;
69358;SDS011;56520;49.066;8.660;2023-09-30T14:27:02;5.88;;;1.90;;
69358;SDS011;56520;49.066;8.660;2023-09-30T14:29:29;6.97;;;2.10;;
69358;SDS011;56520;49.066;8.660;2023-09-30T14:31:55;6.78;;;2.25;;
69358;SDS011;56520;49.066;8.660;2023-09-30T14:34:21;7.45;;;1.90;;
69358;SDS011;56520;49.066;8.660;2023-09-30T14:36:47;6.70;;;2.40;;
69358;SDS011;56520;49.066;8.660;2023-09-30T14:39:12;5.05;;;1.80;;
69358;SDS011;56520;49.066;8.660;2023-09-30T14:41:38;6.80;;;1.90;;
69358;SDS011;56520;49.066;8.660;2023-09-30T14:44:03;7.50;;;2.17;;
69358;SDS011;56520;49.066;8.660;2023-09-30T14:46:33;5.75;;;2.00;;
69358;SDS011;56520;49.066;8.660;2023-09-30T14:48:59;6.70;;;2.10;;
69358;SDS011;56520;49.066;8.660;2023-09-30T14:51:25;6.47;;;2.35;;
69358;SDS011;56520;49.066;8.660;2023-09-30T14:53:50;6.50;;;1.95;;
69358;SDS011;56520;49.066;8.660;2023-09-30T14:56:16;8.40;;;2.50;;
69358;SDS011;56520;49.066;8.660;2023-09-30T14:58:43;6.22;;;2.03;;
69358;SDS011;56520;49.066;8.660;2023-09-30T15:01:09;6.72;;;1.90;;
69358;SDS011;56520;49.066;8.660;2023-09-30T15:03:35;7.65;;;2.33;;
69358;SDS011;56520;49.066;8.660;2023-09-30T15:06:02;6.00;;;1.98;;
69358;SDS011;56520;49.066;8.660;2023-09-30T15:08:29;7.07;;;2.10;;
69358;SDS011;56520;49.066;8.660;2023-09-30T15:10:55;6.95;;;2.22;;
69358;SDS011;56520;49.066;8.660;2023-09-30T15:13:20;8.05;;;2.33;;